Time;durP1;ratioP1;P1;durP2;ratioP2;P2;SDS_P1;SDS_P2;PMS_P1;PMS_P2;Temp;Humidity;BMP_temperature;BMP_pressure;BME280_temperature;BME280_humidity;BME280_pressure;Samples;Min_cycle;Max_cycle;Signal;HPM_P1;HPM_P2
2022/12/05 00:01:34;;;;;;;26.48;9.93;;;;;;;2.32;100.00;98613.72;5004921;28;20026;-74
2022/12/05 00:04:01;;;;;;;30.85;10.68;;;;;;;2.36;100.00;98634.63;5007335;28;20490;-73
2022/12/05 00:06:28;;;;;;;32.13;11.48;;;;;;;2.27;100.00;98619.50;5009675;28;20038;-74
2022/12/05 00:08:54;;;;;;;30.45;10.82;;;;;;;2.27;100.00;98627.53;5017411;28;20059;-74
2022/12/05 00:11:22;;;;;;;39.20;12.40;;;;;;;2.27;100.00;98648.03;5017611;28;20484;-73
2022/12/05 00:13:48;;;;;;;38.08;12.68;;;;;;;2.21;100.00;98641.50;5008260;28;20038;-73
2022/12/05 00:16:17;;;;;;;34.25;11.50;;;;;;;2.26;100.00;98649.06;5006393;28;20041;-73
2022/12/05 00:18:42;;;;;;;32.45;11.20;;;;;;;2.22;100.00;98659.19;5010517;28;20029;-73
2022/12/05 00:21:14;;;;;;;39.78;11.80;;;;;;;2.17;100.00;98650.78;5014358;28;20045;-73
2022/12/05 00:23:39;;;;;;;35.75;11.82;;;;;;;2.12;100.00;98647.75;5006849;28;20176;-74
2022/12/05 00:26:05;;;;;;;46.78;13.13;;;;;;;2.03;100.00;98630.00;5007199;28;20478;-73
2022/12/05 00:28:32;;;;;;;36.97;12.68;;;;;;;2.12;100.00;98656.59;5011347;28;20026;-74
2022/12/05 00:31:04;;;;;;;44.97;13.27;;;;;;;2.06;100.00;98656.38;5022019;28;20006;-74
2022/12/05 00:33:30;;;;;;;54.50;13.52;;;;;;;2.02;100.00;98642.50;5033553;28;20030;-73
2022/12/05 00:36:01;;;;;;;50.08;14.05;;;;;;;2.06;100.00;98649.19;5031634;28;20241;-73
2022/12/05 00:38:26;;;;;;;52.33;13.32;;;;;;;2.07;100.00;98658.03;5035557;28;20045;-74
2022/12/05 00:40:51;;;;;;;44.35;12.85;;;;;;;2.09;100.00;98658.72;5012069;28;20372;-73
2022/12/05 00:43:16;;;;;;;50.22;13.00;;;;;;;2.17;100.00;98664.13;5010734;28;20034;-73
2022/12/05 00:45:42;;;;;;;43.03;12.43;;;;;;;2.07;100.00;98647.38;5006802;28;20025;-73
2022/12/05 00:48:07;;;;;;;44.90;12.73;;;;;;;2.08;100.00;98641.88;5017885;28;20048;-73
2022/12/05 00:50:32;;;;;;;43.30;12.95;;;;;;;2.08;100.00;98630.38;4995784;28;20068;-73
2022/12/05 00:52:58;;;;;;;43.30;14.57;;;;;;;2.08;100.00;98646.38;5007624;28;20025;-73
2022/12/05 00:55:23;;;;;;;49.72;13.40;;;;;;;2.18;100.00;98649.81;5005236;28;20038;-73
2022/12/05 00:57:48;;;;;;;39.35;12.25;;;;;;;2.26;100.00;98647.22;5010199;28;20092;-75
2022/12/05 01:00:14;;;;;;;38.72;12.13;;;;;;;2.21;100.00;98649.50;5024637;28;20103;-74
2022/12/05 01:02:39;;;;;;;44.90;12.73;;;;;;;2.18;100.00;98633.81;5012155;28;20425;-74
2022/12/05 01:05:05;;;;;;;29.98;11.02;;;;;;;2.31;100.00;98650.25;5004885;28;20460;-74
2022/12/05 01:07:30;;;;;;;29.95;11.98;;;;;;;2.30;100.00;98653.91;5011200;28;20033;-73
2022/12/05 01:09:55;;;;;;;29.60;10.55;;;;;;;2.33;100.00;98658.09;5018265;28;20026;-73
2022/12/05 01:12:21;;;;;;;30.02;11.75;;;;;;;2.22;100.00;98645.81;5016571;28;20072;-75
2022/12/05 01:14:46;;;;;;;32.63;10.98;;;;;;;2.31;100.00;98658.25;5010499;28;20033;-74
2022/12/05 01:17:11;;;;;;;32.28;10.73;;;;;;;2.26;100.00;98649.06;5011396;28;20033;-74
2022/12/05 01:19:37;;;;;;;28.98;11.30;;;;;;;2.42;100.00;98684.72;5023547;28;20030;-74
2022/12/05 01:22:02;;;;;;;29.42;11.07;;;;;;;2.42;100.00;98683.88;5013226;28;20101;-74
2022/12/05 01:24:28;;;;;;;34.20;11.98;;;;;;;2.33;100.00;98680.31;5009236;28;20026;-74
2022/12/05 01:26:54;;;;;;;28.27;10.23;;;;;;;2.35;100.00;98699.66;5010008;28;20571;-74
2022/12/05 01:29:21;;;;;;;32.60;10.60;;;;;;;2.37;100.00;98702.19;5018028;28;20116;-74
2022/12/05 01:31:47;;;;;;;30.83;11.10;;;;;;;2.24;100.00;98673.22;5012881;28;20025;-74
2022/12/05 01:34:15;;;;;;;27.25;10.38;;;;;;;2.41;100.00;98707.06;5006793;28;20041;-74
2022/12/05 01:36:41;;;;;;;33.22;10.95;;;;;;;2.39;100.00;98705.56;5009534;28;20021;-74
2022/12/05 01:39:07;;;;;;;36.15;12.32;;;;;;;2.33;100.00;98696.34;5019104;28;20045;-74
2022/12/05 01:41:36;;;;;;;27.92;10.15;;;;;;;2.37;100.00;98726.22;5012860;28;20034;-74
2022/12/05 01:44:04;;;;;;;31.60;11.98;;;;;;;2.31;100.00;98714.31;5003996;28;20113;-73
2022/12/05 01:46:32;;;;;;;28.67;10.97;;;;;;;2.29;100.00;98715.47;5012265;28;20490;-74
2022/12/05 01:49:06;;;;;;;29.40;10.57;;;;;;;2.12;100.00;98698.44;5012359;28;20336;-75
2022/12/05 01:51:32;;;;;;;25.80;9.63;;;;;;;2.20;100.00;98711.88;5015644;28;20105;-74
2022/12/05 01:53:59;;;;;;;23.63;9.98;;;;;;;2.14;100.00;98694.63;5010888;28;20022;-73
2022/12/05 01:56:24;;;;;;;27.55;10.27;;;;;;;2.14;100.00;98697.31;5017868;28;20029;-74
2022/12/05 01:58:51;;;;;;;31.65;10.50;;;;;;;2.20;100.00;98695.84;5024295;28;20118;-73
2022/12/05 02:01:17;;;;;;;21.92;10.13;;;;;;;2.11;100.00;98686.94;5025716;28;20085;-74
2022/12/05 02:03:45;;;;;;;24.58;11.60;;;;;;;2.23;100.00;98695.56;5011931;28;20033;-74
2022/12/05 02:06:12;;;;;;;22.05;9.85;;;;;;;2.18;100.00;98688.00;5008963;28;20033;-74
2022/12/05 02:08:38;;;;;;;23.02;10.35;;;;;;;2.09;100.00;98677.41;5009340;28;20052;-74
2022/12/05 02:11:06;;;;;;;23.42;10.38;;;;;;;2.16;100.00;98691.81;5014396;28;20064;-74
2022/12/05 02:13:31;;;;;;;27.33;10.70;;;;;;;2.14;100.00;98685.78;5015104;28;20111;-74
2022/12/05 02:16:07;;;;;;;22.48;9.70;;;;;;;2.08;100.00;98691.75;5021665;28;20065;-74
2022/12/05 02:18:42;;;;;;;28.90;11.00;;;;;;;2.02;100.00;98697.69;5012379;28;20034;-74
2022/12/05 02:21:38;;;;;;;30.05;11.38;;;;;;;1.97;100.00;98707.00;5008628;28;20034;-74
2022/12/05 02:24:41;;;;;;;28.25;11.25;;;;;;;1.94;100.00;98712.63;5014416;28;20365;-74
2022/12/05 02:27:38;;;;;;;28.33;10.07;;;;;;;1.92;100.00;98719.94;5000779;28;20092;-73
2022/12/05 02:30:09;;;;;;;26.48;9.52;;;;;;;1.87;100.00;98729.38;5008147;28;20037;-76
2022/12/05 02:33:02;;;;;;;27.67;10.38;;;;;;;1.84;100.00;98733.19;5027299;28;20064;-74
2022/12/05 02:35:40;;;;;;;34.40;11.27;;;;;;;1.84;100.00;98737.69;5011542;28;20050;-74
2022/12/05 02:38:16;;;;;;;31.50;12.05;;;;;;;1.75;100.00;98697.56;5008217;28;20025;-74
2022/12/05 02:41:04;;;;;;;29.40;10.05;;;;;;;1.70;100.00;98696.34;5019282;28;20392;-74
2022/12/05 02:43:43;;;;;;;31.10;10.60;;;;;;;1.84;100.00;98717.19;5014646;28;20083;-72
2022/12/05 02:46:13;;;;;;;29.23;10.68;;;;;;;1.86;100.00;98717.88;5007918;28;20037;-73
2022/12/05 02:48:41;;;;;;;30.98;11.32;;;;;;;1.79;100.00;98719.47;5002251;28;20400;-71
2022/12/05 02:51:10;;;;;;;23.30;9.93;;;;;;;1.72;100.00;98711.22;5003316;28;20041;-71
2022/12/05 02:53:37;;;;;;;25.58;10.38;;;;;;;1.78;100.00;98735.59;5018936;28;20030;-72
2022/12/05 02:56:05;;;;;;;25.08;10.57;;;;;;;1.77;100.00;98732.09;5011233;28;21810;-74
2022/12/05 02:58:35;;;;;;;29.15;10.85;;;;;;;1.91;100.00;98763.63;5009979;28;20036;-72
2022/12/05 03:01:01;;;;;;;28.15;11.05;;;;;;;1.90;100.00;98767.25;5014323;28;20075;-71
2022/12/05 03:03:27;;;;;;;26.77;11.15;;;;;;;1.63;100.00;98724.63;5024951;28;20504;-72
2022/12/05 03:06:05;;;;;;;29.52;10.65;;;;;;;1.80;100.00;98763.81;5021335;28;20034;-71
2022/12/05 03:08:38;;;;;;;30.45;10.90;;;;;;;1.78;100.00;98765.78;5008162;28;20030;-71
2022/12/05 03:11:05;;;;;;;34.30;12.07;;;;;;;1.68;100.00;98760.50;5015545;28;20029;-72
2022/12/05 03:13:38;;;;;;;30.05;11.10;;;;;;;1.78;100.00;98775.63;5018012;28;20025;-71
2022/12/05 03:16:11;;;;;;;27.77;11.43;;;;;;;1.79;100.00;98782.66;5003088;28;20022;-72
2022/12/05 03:18:41;;;;;;;30.42;11.45;;;;;;;1.85;100.00;98780.22;5008972;28;20088;-72
2022/12/05 03:21:20;;;;;;;31.50;10.63;;;;;;;1.91;100.00;98774.31;5007644;28;20041;-72
2022/12/05 03:23:52;;;;;;;31.60;10.68;;;;;;;1.79;100.00;98767.47;5014343;28;20053;-73
2022/12/05 03:26:45;;;;;;;34.42;11.15;;;;;;;1.98;100.00;98778.03;5013695;28;20038;-72
2022/12/05 03:29:31;;;;;;;31.88;11.00;;;;;;;1.98;100.00;98777.19;5008359;28;20026;-72
2022/12/05 03:32:08;;;;;;;26.77;10.40;;;;;;;1.97;100.00;98770.19;5010407;28;20030;-73
2022/12/05 03:34:41;;;;;;;28.88;9.93;;;;;;;2.04;100.00;98762.41;5012398;28;20030;-73
2022/12/05 03:37:13;;;;;;;22.45;10.45;;;;;;;2.03;100.00;98758.06;5006745;28;20032;-72
2022/12/05 03:39:44;;;;;;;27.23;10.73;;;;;;;1.97;100.00;98740.84;5010484;28;20029;-72
2022/12/05 03:42:19;;;;;;;23.42;10.02;;;;;;;2.14;100.00;98756.00;4992618;28;20026;-72
2022/12/05 03:44:53;;;;;;;24.40;9.38;;;;;;;2.15;100.00;98746.22;4997307;28;20038;-72
2022/12/05 03:47:41;;;;;;;28.17;10.88;;;;;;;2.08;100.00;98742.47;5007831;28;20373;-73
2022/12/05 03:50:13;;;;;;;24.52;9.85;;;;;;;1.85;100.00;98718.84;5005405;28;20022;-72
2022/12/05 03:52:46;;;;;;;22.17;9.60;;;;;;;2.04;100.00;98755.25;5008683;28;20125;-72
2022/12/05 03:55:12;;;;;;;21.50;9.77;;;;;;;2.07;100.00;98765.63;5025384;28;20494;-72
2022/12/05 03:57:53;;;;;;;20.23;9.23;;;;;;;2.11;100.00;98759.00;5020385;28;20030;-72
2022/12/05 04:00:21;;;;;;;22.27;9.60;;;;;;;2.13;100.00;98759.69;5001522;28;20506;-72
2022/12/05 04:02:49;;;;;;;25.92;9.35;;;;;;;2.07;100.00;98752.28;5010124;28;20024;-72
2022/12/05 04:05:22;;;;;;;25.48;10.05;;;;;;;2.08;100.00;98753.13;5001113;28;20386;-73
2022/12/05 04:07:52;;;;;;;28.25;10.20;;;;;;;2.04;100.00;98735.72;5011468;28;20036;-73
2022/12/05 04:10:22;;;;;;;22.10;9.52;;;;;;;2.21;100.00;98764.28;4995699;28;20025;-72
2022/12/05 04:12:50;;;;;;;22.88;8.98;;;;;;;2.16;100.00;98758.56;5008902;28;20041;-72
2022/12/05 04:15:25;;;;;;;21.95;9.18;;;;;;;2.26;100.00;98766.50;5017756;28;20037;-72
2022/12/05 04:17:56;;;;;;;19.83;8.38;;;;;;;2.24;100.00;98758.63;5022209;28;20105;-72
2022/12/05 04:23:25;;;;;;;25.17;9.13;;;;;;;2.24;100.00;98753.28;5011452;28;20435;-72
2022/12/05 04:26:20;;;;;;;26.15;10.25;;;;;;;2.22;100.00;98755.25;5010198;28;20026;-72
2022/12/05 04:28:55;;;;;;;22.80;8.40;;;;;;;2.29;100.00;98766.19;4997432;28;20388;-72
2022/12/05 04:31:24;;;;;;;22.67;8.27;;;;;;;2.23;100.00;98764.97;5007274;28;20045;-73
2022/12/05 04:33:59;;;;;;;25.38;9.10;;;;;;;2.24;100.00;98781.81;5012412;28;20518;-73
2022/12/05 04:36:37;;;;;;;23.67;9.35;;;;;;;2.22;100.00;98783.78;5007507;28;20095;-73
2022/12/05 04:39:07;;;;;;;23.38;11.00;;;;;;;2.22;100.00;98783.78;5017874;28;20021;-73
2022/12/05 04:41:47;;;;;;;19.70;9.00;;;;;;;2.16;100.00;98771.91;5006637;28;20033;-80
2022/12/05 04:44:16;;;;;;;25.80;9.73;;;;;;;2.32;100.00;98787.25;5004992;28;20025;-79
2022/12/05 04:46:44;;;;;;;21.33;8.93;;;;;;;2.29;100.00;98776.88;5011884;28;20111;-80
2022/12/05 04:49:15;;;;;;;25.38;8.80;;;;;;;2.17;100.00;98760.22;5009009;28;20034;-79
2022/12/05 04:51:42;;;;;;;27.80;9.32;;;;;;;2.30;100.00;98790.03;5010707;28;20041;-78
2022/12/05 04:54:22;;;;;;;24.95;9.70;;;;;;;2.11;100.00;98747.50;5000374;28;20033;-77
2022/12/05 04:56:51;;;;;;;20.13;8.85;;;;;;;2.18;100.00;98761.91;5006167;28;20029;-78
2022/12/05 04:59:16;;;;;;;15.15;6.57;;;;;;;2.25;100.00;98767.47;5006930;28;20495;-78
2022/12/05 05:01:47;;;;;;;21.48;8.07;;;;;;;2.38;100.00;98779.47;5018018;28;20028;-78
2022/12/05 05:04:20;;;;;;;24.20;8.63;;;;;;;2.39;100.00;98786.47;5014511;28;20504;-77
2022/12/05 05:06:46;;;;;;;21.10;8.65;;;;;;;2.34;100.00;98774.59;5010070;28;20030;-80
2022/12/05 05:09:11;;;;;;;22.92;9.00;;;;;;;2.20;100.00;98759.91;5007692;28;20040;-78
2022/12/05 05:11:37;;;;;;;25.55;9.25;;;;;;;2.27;100.00;98776.16;5027793;28;20087;-77
2022/12/05 05:14:02;;;;;;;19.60;8.35;;;;;;;2.04;100.00;98735.72;5015322;28;20033;-78
2022/12/05 05:16:33;;;;;;;23.67;8.77;;;;;;;2.25;100.00;98773.63;5008932;28;20049;-80
2022/12/05 05:18:59;;;;;;;22.50;9.27;;;;;;;2.29;100.00;98783.03;5013544;28;20044;-80
2022/12/05 05:21:39;;;;;;;26.13;9.27;;;;;;;2.10;100.00;98762.66;5018729;28;20026;-83
2022/12/05 05:24:14;;;;;;;21.67;8.63;;;;;;;2.33;100.00;98792.44;5026717;28;20030;-80
2022/12/05 05:27:26;;;;;;;21.63;9.02;;;;;;;2.33;100.00;98802.25;5031148;28;20034;-85
2022/12/05 05:29:51;;;;;;;24.30;10.25;;;;;;;2.36;100.00;98801.97;5018323;28;20033;-79
2022/12/05 05:32:16;;;;;;;21.15;9.98;;;;;;;2.26;100.00;98785.19;5020207;28;20061;-79
2022/12/05 05:34:42;;;;;;;20.23;8.38;;;;;;;2.34;100.00;98804.78;5014324;28;20032;-77
2022/12/05 05:37:07;;;;;;;24.38;9.13;;;;;;;2.16;100.00;98770.06;5014573;28;20053;-77
2022/12/05 05:39:32;;;;;;;22.98;9.07;;;;;;;2.30;100.00;98784.72;5006803;28;20025;-79
2022/12/05 05:45:20;;;;;;;21.80;9.35;;;;;;;2.41;100.00;98816.53;5018377;28;20100;-74
2022/12/05 05:47:48;;;;;;;19.35;9.00;;;;;;;2.44;100.00;98825.22;5006713;28;20034;-75
2022/12/05 05:50:14;;;;;;;13.83;6.13;;;;;;;2.37;100.00;98819.66;5014517;28;20053;-75
2022/12/05 05:52:40;;;;;;;21.92;8.80;;;;;;;2.33;100.00;98805.78;5015050;28;20018;-79
2022/12/05 05:55:07;;;;;;;20.25;8.70;;;;;;;2.40;100.00;98828.19;5007938;28;20737;-73
2022/12/05 05:57:33;;;;;;;19.58;8.10;;;;;;;2.44;100.00;98830.56;5011292;28;20030;-72
2022/12/05 05:59:59;;;;;;;19.17;8.38;;;;;;;2.45;100.00;98829.59;5009046;28;20136;-72
2022/12/05 06:02:24;;;;;;;21.00;8.98;;;;;;;2.27;100.00;98814.38;5013028;28;20097;-72
2022/12/05 06:04:49;;;;;;;24.92;9.27;;;;;;;2.49;100.00;98837.16;5010734;28;20635;-73
2022/12/05 06:07:15;;;;;;;20.67;8.90;;;;;;;2.46;100.00;98836.59;5016834;28;20061;-73
2022/12/05 06:09:40;;;;;;;25.23;9.02;;;;;;;2.34;100.00;98825.31;5030241;28;20021;-73
2022/12/05 06:12:06;;;;;;;23.75;9.45;;;;;;;2.37;100.00;98835.69;5038317;28;20133;-73
2022/12/05 06:14:31;;;;;;;24.00;9.35;;;;;;;2.57;100.00;98841.75;5033216;28;20094;-73
2022/12/05 06:16:56;;;;;;;22.73;9.88;;;;;;;2.33;100.00;98812.94;5019499;28;20068;-73
2022/12/05 06:19:22;;;;;;;24.77;10.38;;;;;;;2.49;100.00;98850.50;5013412;28;20026;-73
2022/12/05 06:21:49;;;;;;;21.52;8.85;;;;;;;2.36;100.00;98832.19;5018010;28;20559;-74
2022/12/05 06:24:15;;;;;;;21.25;9.23;;;;;;;2.47;100.00;98844.47;5017577;28;20081;-73
2022/12/05 06:26:40;;;;;;;22.48;8.88;;;;;;;2.45;100.00;98842.94;5015031;28;20480;-73
2022/12/05 06:29:06;;;;;;;22.13;9.38;;;;;;;2.47;100.00;98827.63;5005896;28;20084;-74
2022/12/05 06:31:32;;;;;;;21.75;8.85;;;;;;;2.44;100.00;98835.91;5009225;28;20030;-74
2022/12/05 06:34:02;;;;;;;23.80;9.63;;;;;;;2.48;100.00;98846.13;4995839;28;20022;-74
2022/12/05 06:36:28;;;;;;;22.98;9.05;;;;;;;2.46;100.00;98847.28;4995493;28;20041;-73
2022/12/05 06:38:58;;;;;;;24.30;9.68;;;;;;;2.47;100.00;98844.47;5019742;28;20033;-77
2022/12/05 06:41:24;;;;;;;21.13;8.63;;;;;;;2.41;100.00;98831.69;5016154;28;20372;-77
2022/12/05 06:43:54;;;;;;;21.30;8.38;;;;;;;2.54;100.00;98836.69;5007109;28;20029;-77
2022/12/05 06:46:20;;;;;;;25.50;9.50;;;;;;;2.61;100.00;98832.41;5012752;28;20034;-77
2022/12/05 06:48:46;;;;;;;23.95;9.63;;;;;;;2.59;100.00;98829.91;5012406;28;20022;-77
2022/12/05 06:51:14;;;;;;;25.48;10.18;;;;;;;2.58;100.00;98830.06;5009829;28;20121;-77
2022/12/05 06:53:40;;;;;;;31.50;10.53;;;;;;;2.51;100.00;98823.63;5011536;28;20022;-79
2022/12/05 06:56:12;;;;;;;23.33;10.15;;;;;;;2.62;100.00;98860.81;5025452;28;20507;-76
2022/12/05 06:58:38;;;;;;;21.58;9.20;;;;;;;2.52;100.00;98838.69;5009088;28;20026;-78
2022/12/05 07:03:48;;;;;;;24.30;9.15;;;;;;;2.59;100.00;98887.81;5015035;28;20156;-74
2022/12/05 07:06:14;;;;;;;33.88;9.55;;;;;;;2.49;100.00;98869.19;5016660;28;20038;-77
2022/12/05 07:08:40;;;;;;;31.63;10.32;;;;;;;2.62;100.00;98895.56;5002317;28;20088;-77
2022/12/05 07:11:06;;;;;;;22.98;11.05;;;;;;;2.56;100.00;98882.78;5013406;28;20025;-76
2022/12/05 07:13:32;;;;;;;23.25;9.05;;;;;;;2.61;100.00;98884.00;5011662;28;20022;-77
2022/12/05 07:15:58;;;;;;;23.45;9.40;;;;;;;2.74;100.00;98907.69;5012956;28;20022;-77
2022/12/05 07:18:23;;;;;;;23.67;9.23;;;;;;;2.65;100.00;98900.59;5012922;28;20030;-77
2022/12/05 07:20:57;;;;;;;19.40;9.20;;;;;;;2.77;100.00;98907.38;5008610;28;20496;-79
2022/12/05 07:23:22;;;;;;;24.13;10.07;;;;;;;2.69;100.00;98888.59;5006036;28;20542;-78
2022/12/05 07:25:47;;;;;;;20.00;9.35;;;;;;;2.86;100.00;98878.94;5010679;28;20037;-78
2022/12/05 07:28:13;;;;;;;25.55;9.43;;;;;;;2.96;100.00;98881.50;5011302;28;20060;-78
2022/12/05 07:30:38;;;;;;;20.33;9.38;;;;;;;2.85;100.00;98874.56;5012570;28;20477;-77
2022/12/05 07:33:03;;;;;;;24.55;9.05;;;;;;;3.05;100.00;98910.00;5005800;28;20034;-78
2022/12/05 07:35:28;;;;;;;22.58;9.43;;;;;;;3.00;100.00;98885.56;5013316;28;20603;-77
2022/12/05 07:37:54;;;;;;;17.52;8.27;;;;;;;3.01;100.00;98890.75;5013700;28;20037;-76
2022/12/05 07:40:19;;;;;;;19.67;8.82;;;;;;;2.95;100.00;98893.19;5012107;28;20029;-79
2022/12/05 07:42:47;;;;;;;20.15;9.02;;;;;;;2.93;100.00;98895.16;5009491;28;20399;-78
2022/12/05 07:45:12;;;;;;;22.83;9.07;;;;;;;2.96;100.00;98897.53;5010222;28;20026;-78
2022/12/05 07:47:37;;;;;;;21.63;8.73;;;;;;;3.01;100.00;98897.91;5011638;28;20033;-78
2022/12/05 07:50:03;;;;;;;24.67;10.52;;;;;;;2.98;100.00;98898.22;5003753;28;20029;-78
2022/12/05 07:52:29;;;;;;;18.83;8.52;;;;;;;2.88;100.00;98895.63;5005063;28;20026;-75
2022/12/05 07:58:17;;;;;;;21.55;8.52;;;;;;;2.99;100.00;98903.44;4995021;28;20097;-77
2022/12/05 08:00:42;;;;;;;17.20;8.07;;;;;;;2.92;100.00;98888.16;5014238;28;20030;-73
2022/12/05 08:06:32;;;;;;;22.33;9.52;;;;;;;3.11;100.00;98897.84;5020893;28;20121;-80
2022/12/05 08:13:17;;;;;;;19.65;8.52;;;;;;;3.26;100.00;98913.19;5037244;28;20037;-89
2022/12/05 08:15:42;;;;;;;20.13;9.00;;;;;;;3.24;100.00;98904.47;5012850;28;20029;-84
2022/12/05 08:18:07;;;;;;;19.00;7.97;;;;;;;3.21;100.00;98880.72;5021651;28;20061;-73
2022/12/05 08:20:41;;;;;;;22.20;9.20;;;;;;;3.36;100.00;98921.13;5026068;28;20113;-80
2022/12/05 08:23:07;;;;;;;22.40;9.63;;;;;;;3.29;100.00;98914.72;5009880;28;20034;-78
2022/12/05 08:25:33;;;;;;;24.48;9.02;;;;;;;3.30;100.00;98908.38;5006907;28;20600;-79
2022/12/05 08:27:58;;;;;;;17.05;8.07;;;;;;;3.26;100.00;98894.47;4991826;28;20033;-73
2022/12/05 08:30:23;;;;;;;20.05;8.65;;;;;;;3.45;100.00;98916.69;5024566;28;20053;-78
2022/12/05 08:32:49;;;;;;;21.05;9.65;;;;;;;3.36;100.00;98899.75;5010760;28;20387;-78
2022/12/05 08:35:15;;;;;;;18.88;9.23;;;;;;;3.48;100.00;98932.41;5025336;28;20044;-76
2022/12/05 08:37:40;;;;;;;18.67;8.82;;;;;;;3.45;100.00;98927.38;5010739;28;20025;-78
2022/12/05 08:40:06;;;;;;;19.55;9.35;;;;;;;3.57;100.00;98934.19;5011879;28;20100;-77
2022/12/05 08:42:31;;;;;;;23.15;9.70;;;;;;;3.46;100.00;98929.91;5008472;28;20033;-77
2022/12/05 08:44:57;;;;;;;20.90;8.95;;;;;;;3.59;100.00;98940.22;5011169;28;20546;-76
2022/12/05 08:47:22;;;;;;;18.52;8.43;;;;;;;3.57;100.00;98931.50;5010229;28;20061;-75
2022/12/05 08:49:47;;;;;;;19.27;9.45;;;;;;;3.51;100.00;98940.13;5013060;28;20369;-77
2022/12/05 08:52:13;;;;;;;19.92;8.85;;;;;;;3.49;100.00;98939.47;5007207;28;20387;-76
2022/12/05 08:54:38;;;;;;;21.15;9.00;;;;;;;3.54;100.00;98933.63;5013149;28;20174;-75
2022/12/05 08:57:03;;;;;;;17.98;8.07;;;;;;;3.69;100.00;98953.47;5013968;28;20437;-76
2022/12/05 08:59:29;;;;;;;17.90;8.05;;;;;;;3.71;100.00;98943.47;5013684;28;20399;-74
2022/12/05 09:01:54;;;;;;;18.50;8.82;;;;;;;3.78;100.00;98946.38;5015878;28;20022;-75
2022/12/05 09:04:19;;;;;;;20.10;9.18;;;;;;;3.89;100.00;98956.81;5013637;28;20034;-75
2022/12/05 09:06:45;;;;;;;20.08;8.70;;;;;;;3.87;100.00;98956.13;5013918;28;20034;-75
2022/12/05 09:09:10;;;;;;;28.50;9.73;;;;;;;4.03;100.00;98972.28;5018256;28;20049;-74
2022/12/05 09:11:45;;;;;;;23.50;9.88;;;;;;;4.08;100.00;98961.94;5013465;28;20022;-75
2022/12/05 09:14:11;;;;;;;21.77;9.65;;;;;;;4.12;100.00;98968.69;5012986;28;20076;-77
2022/12/05 09:16:37;;;;;;;22.48;9.32;;;;;;;4.16;100.00;98985.25;5011110;28;20107;-75
2022/12/05 09:19:02;;;;;;;18.58;8.20;;;;;;;4.01;100.00;98949.34;5036257;22;20521;-77
2022/12/05 09:21:30;;;;;;;19.77;8.60;;;;;;;4.09;100.00;98986.91;5011153;28;20067;-76
2022/12/05 09:23:57;;;;;;;18.50;8.25;;;;;;;4.07;100.00;98976.34;5016229;28;20471;-77
2022/12/05 09:26:36;;;;;;;21.35;9.35;;;;;;;3.82;100.00;98924.47;5024170;28;20102;-79
2022/12/05 09:29:02;;;;;;;18.08;8.07;;;;;;;4.21;100.00;98985.63;5014539;28;20018;-77
2022/12/05 09:31:29;;;;;;;21.08;8.57;;;;;;;4.10;100.00;98948.41;5012628;28;20471;-78
2022/12/05 09:33:54;;;;;;;18.08;8.35;;;;;;;4.12;100.00;98957.97;5024411;28;20394;-78
2022/12/05 09:36:23;;;;;;;21.45;9.68;;;;;;;4.36;100.00;98996.59;5022952;28;20030;-76
2022/12/05 09:38:49;;;;;;;15.70;6.80;;;;;;;4.42;100.00;98993.28;5013926;28;20042;-79
2022/12/05 09:42:03;;;;;;;17.48;7.95;;;;;;;4.48;100.00;98989.13;5008338;28;20026;-76
2022/12/05 09:44:16;;;;;;;22.23;9.15;;;;;;;4.53;100.00;98997.50;5011428;28;20088;-76
2022/12/05 09:46:54;;;;;;;20.35;8.15;;;;;;;4.31;100.00;98975.63;5013667;28;20030;-79
2022/12/05 09:49:22;;;;;;;18.10;7.93;;;;;;;4.30;100.00;98987.38;5013601;28;20030;-74
2022/12/05 09:51:49;;;;;;;24.52;9.02;;;;;;;4.27;100.00;98993.03;5026147;28;20095;-73
2022/12/05 09:54:14;;;;;;;26.15;10.27;;;;;;;4.23;100.00;98996.19;5007736;28;20042;-73
2022/12/05 09:57:18;;;;;;;18.10;8.60;;;;;;;4.32;100.00;99009.47;5027251;28;20010;-80
2022/12/05 10:00:05;;;;;;;22.33;10.35;;;;;;;4.23;100.00;98986.31;5007455;28;20037;-77
2022/12/05 10:02:56;;;;;;;21.80;10.75;;;;;;;4.22;100.00;98994.50;5020402;28;20022;-77
2022/12/05 10:05:42;;;;;;;24.00;10.75;;;;;;;4.23;100.00;99020.28;5036917;28;20041;-79
2022/12/05 10:08:49;;;;;;;20.38;9.82;;;;;;;4.17;100.00;99014.56;5032842;28;20093;-78
2022/12/05 10:11:21;;;;;;;21.70;10.00;;;;;;;4.21;100.00;98992.81;5031023;28;20046;-79
2022/12/05 10:14:14;;;;;;;23.40;10.90;;;;;;;4.32;100.00;99014.84;5033629;28;20052;-78
2022/12/05 10:16:47;;;;;;;25.85;10.10;;;;;;;4.33;100.00;98994.25;5032388;28;20068;-77
2022/12/05 10:19:17;;;;;;;20.83;8.40;;;;;;;4.42;100.00;98990.59;5031586;28;20030;-78
2022/12/05 10:21:58;;;;;;;20.63;9.15;;;;;;;4.62;100.00;99007.28;5034386;28;20018;-72
2022/12/05 10:24:32;;;;;;;23.50;9.57;;;;;;;4.79;100.00;98992.09;5022155;28;20081;-72
2022/12/05 10:27:11;;;;;;;25.58;9.60;;;;;;;4.86;100.00;99003.88;5033425;28;20030;-77
2022/12/05 10:29:44;;;;;;;17.40;8.40;;;;;;;4.90;100.00;98999.88;5034431;28;20018;-78
2022/12/05 10:32:27;;;;;;;20.02;9.45;;;;;;;4.86;100.00;99003.03;5030840;28;20063;-77
2022/12/05 10:34:58;;;;;;;18.52;9.38;;;;;;;4.65;100.00;98990.88;5015854;28;20171;-76
2022/12/05 10:37:24;;;;;;;20.75;8.95;;;;;;;4.78;100.00;98987.75;5010119;28;20038;-77
2022/12/05 10:39:51;;;;;;;21.17;9.57;;;;;;;4.91;100.00;98980.09;5013843;28;20499;-76
2022/12/05 10:42:25;;;;;;;25.77;9.48;;;;;;;4.80;100.00;98945.56;5021621;28;20049;-76
2022/12/05 10:45:03;;;;;;;22.92;10.43;;;;;;;4.96;100.00;98998.38;5015603;28;20097;-74
2022/12/05 10:54:22;;;;;;;19.00;9.27;;;;;;;3.92;100.00;98886.91;5017495;28;20085;-80
2022/12/05 10:56:50;;;;;;;19.95;10.35;;;;;;;4.14;100.00;98939.06;5013925;28;20025;-78
2022/12/05 10:59:20;;;;;;;24.85;11.20;;;;;;;3.58;100.00;98873.47;5013248;28;20372;-77
2022/12/05 11:01:57;;;;;;;20.48;9.35;;;;;;;4.13;100.00;98986.41;5015398;28;20018;-78
2022/12/05 11:04:40;;;;;;;19.60;9.23;;;;;;;4.26;100.00;98996.69;5020214;28;20018;-78
2022/12/05 11:07:05;;;;;;;24.63;8.75;;;;;;;4.31;100.00;99004.28;5014256;28;20018;-77
2022/12/05 11:09:37;;;;;;;23.58;9.50;;;;;;;4.30;100.00;98999.94;5013849;28;20030;-80
2022/12/05 11:12:16;;;;;;;19.52;8.88;;;;;;;4.27;100.00;98989.50;5013679;28;20079;-77
2022/12/05 11:15:02;;;;;;;27.38;10.40;;;;;;;4.33;100.00;99007.63;5012600;28;20565;-79
2022/12/05 11:17:31;;;;;;;21.67;10.02;;;;;;;4.36;100.00;99018.84;5013040;28;20037;-78
2022/12/05 11:19:56;;;;;;;24.80;10.93;;;;;;;4.44;100.00;98998.47;5012463;28;20030;-78
2022/12/05 11:22:33;;;;;;;25.40;10.98;;;;;;;4.61;100.00;99011.81;5012743;28;20092;-80
2022/12/05 11:24:59;;;;;;;21.75;10.75;;;;;;;4.70;100.00;98999.28;5004871;28;20113;-78
2022/12/05 11:27:30;;;;;;;17.38;9.00;;;;;;;4.70;100.00;98977.00;5013925;28;20072;-79
2022/12/05 11:30:17;;;;;;;23.02;9.30;;;;;;;4.91;100.00;98996.19;5014307;28;20046;-77
2022/12/05 11:32:45;;;;;;;20.13;9.23;;;;;;;5.07;100.00;98989.19;5013064;28;20033;-77
2022/12/05 11:35:10;;;;;;;18.92;9.23;;;;;;;5.26;100.00;98991.56;5011052;28;20041;-78
2022/12/05 11:37:53;;;;;;;19.98;9.20;;;;;;;5.39;100.00;98975.81;5010391;28;20030;-76
2022/12/05 11:40:31;;;;;;;20.70;9.07;;;;;;;5.55;100.00;98977.69;5027711;28;20029;-79
2022/12/05 11:43:11;;;;;;;19.15;8.95;;;;;;;5.57;100.00;98974.84;5031741;23;20053;-59
2022/12/05 11:46:04;;;;;;;17.08;8.88;;;;;;;5.58;100.00;98976.50;5011663;28;20042;-61
2022/12/05 11:48:51;;;;;;;17.13;8.73;;;;;;;5.67;100.00;98975.53;5005143;28;20034;-61
2022/12/05 11:51:46;;;;;;;17.88;7.93;;;;;;;5.81;100.00;98979.38;4997138;28;20466;-61
2022/12/05 11:54:25;;;;;;;16.95;7.55;;;;;;;5.98;100.00;98966.81;5004531;28;20567;-61
2022/12/05 11:57:06;;;;;;;19.10;8.90;;;;;;;6.06;100.00;98969.47;4999394;28;20080;-61
2022/12/05 11:59:59;;;;;;;16.70;8.25;;;;;;;6.23;100.00;98971.09;5005494;28;20033;-60
2022/12/05 12:02:43;;;;;;;17.50;8.05;;;;;;;6.15;100.00;98971.13;5008650;28;20017;-61
2022/12/05 12:05:24;;;;;;;13.98;7.70;;;;;;;6.20;100.00;98967.94;5009629;28;20036;-61